createdAt,value
2018-06-11T00:00:11.954Z,19.50
2018-06-11T00:02:47.618Z,19.40
2018-06-11T00:05:23.267Z,19.29
2018-06-11T00:07:58.722Z,19.21
2018-06-11T00:10:34.988Z,19.21
2018-06-11T00:13:10.281Z,19.17
2018-06-11T00:15:46.093Z,19.12
2018-06-11T00:18:21.985Z,19.14
2018-06-11T00:20:57.776Z,19.28
2018-06-11T00:23:33.233Z,19.32
2018-06-11T00:26:09.057Z,19.33
2018-06-11T00:28:44.594Z,19.42
2018-06-11T00:31:20.342Z,19.48
2018-06-11T00:33:56.173Z,19.35
2018-06-11T00:36:32.111Z,19.17
2018-06-11T00:39:11.733Z,19.15
2018-06-11T00:41:47.445Z,19.13
2018-06-11T00:44:23.162Z,19.25
2018-06-11T00:46:58.839Z,19.33
2018-06-11T00:49:35.143Z,19.27
2018-06-11T00:52:10.912Z,19.13
2018-06-11T00:54:46.777Z,19.15
2018-06-11T00:57:22.253Z,19.14
2018-06-11T00:59:58.901Z,19.28
2018-06-11T01:02:34.145Z,19.35
2018-06-11T01:05:09.863Z,19.24
2018-06-11T01:07:45.921Z,19.15
2018-06-11T01:10:21.857Z,19.06
2018-06-11T01:12:57.172Z,18.92
2018-06-11T01:15:32.781Z,18.75
2018-06-11T01:18:08.669Z,18.68
2018-06-11T01:20:44.364Z,18.75
2018-06-11T01:23:19.929Z,18.67
2018-06-11T01:25:56.033Z,18.56
2018-06-11T01:28:31.579Z,18.62
2018-06-11T01:31:07.291Z,18.59
2018-06-11T01:33:42.827Z,18.61
2018-06-11T01:36:18.253Z,18.64
2018-06-11T01:38:54.062Z,18.73
2018-06-11T01:41:29.717Z,18.84
2018-06-11T01:44:05.457Z,18.62
2018-06-11T01:46:41.813Z,18.46
2018-06-11T01:49:17.835Z,18.42
2018-06-11T01:51:53.294Z,18.49
2018-06-11T01:54:28.843Z,18.57
2018-06-11T01:57:04.532Z,18.46
2018-06-11T01:59:40.529Z,18.38
2018-06-11T02:02:16.035Z,18.19
2018-06-11T02:04:51.743Z,18.36
2018-06-11T02:07:27.397Z,18.50
2018-06-11T02:10:03.169Z,18.52
2018-06-11T02:12:39.139Z,18.52
2018-06-11T02:15:14.891Z,18.48
2018-06-11T02:17:50.895Z,18.45
2018-06-11T02:20:26.373Z,18.53
2018-06-11T02:23:02.020Z,18.58
2018-06-11T02:25:37.765Z,18.36
2018-06-11T02:28:13.337Z,18.24
2018-06-11T02:30:49.011Z,18.24
2018-06-11T02:33:25.013Z,18.24
2018-06-11T02:36:00.337Z,18.14
2018-06-11T02:38:35.747Z,18.08
2018-06-11T02:41:11.448Z,18.01
2018-06-11T02:43:47.125Z,18.04
2018-06-11T02:46:22.652Z,17.96
2018-06-11T02:48:58.457Z,17.88
2018-06-11T02:51:33.925Z,17.79
2018-06-11T02:54:09.435Z,17.82
2018-06-11T02:56:44.901Z,17.75
2018-06-11T02:59:20.412Z,17.65
2018-06-11T03:01:56.276Z,17.72
2018-06-11T03:04:31.927Z,17.78
2018-06-11T03:07:07.494Z,17.87
2018-06-11T03:09:43.144Z,17.91
2018-06-11T03:12:18.680Z,17.85
2018-06-11T03:14:54.204Z,17.76
2018-06-11T03:17:29.673Z,17.74
2018-06-11T03:20:05.139Z,17.82
2018-06-11T03:22:40.971Z,17.98
2018-06-11T03:25:16.491Z,18.03
2018-06-11T03:27:52.166Z,18.15
2018-06-11T03:30:32.295Z,18.21
2018-06-11T03:33:08.136Z,18.24
2018-06-11T03:35:43.670Z,18.32
2018-06-11T03:38:19.200Z,18.37
2018-06-11T03:40:55.228Z,18.35
2018-06-11T03:43:30.936Z,18.41
2018-06-11T03:46:06.714Z,18.50
2018-06-11T03:48:42.694Z,18.41
2018-06-11T03:51:18.114Z,18.41
2018-06-11T03:53:53.908Z,18.44
2018-06-11T03:56:29.716Z,18.40
2018-06-11T03:59:05.321Z,18.39
2018-06-11T04:01:41.428Z,18.51
2018-06-11T04:04:17.220Z,18.73
2018-06-11T04:06:52.819Z,18.67
2018-06-11T04:09:28.215Z,18.52
2018-06-11T04:12:03.999Z,18.49
2018-06-11T04:14:39.578Z,18.75
2018-06-11T04:17:15.828Z,19.00
2018-06-11T04:19:51.276Z,18.90
2018-06-11T04:22:26.876Z,18.89
2018-06-11T04:25:02.878Z,18.87
2018-06-11T04:27:38.410Z,18.92
2018-06-11T04:30:14.172Z,18.95
2018-06-11T04:32:49.976Z,19.04
2018-06-11T04:35:26.303Z,19.08
2018-06-11T04:38:02.090Z,19.19
2018-06-11T04:40:37.810Z,19.34
2018-06-11T04:43:13.232Z,19.38
2018-06-11T04:45:48.790Z,19.57
2018-06-11T04:48:24.456Z,19.72
2018-06-11T04:51:00.231Z,19.90
2018-06-11T04:53:35.815Z,20.05
2018-06-11T04:56:11.643Z,20.06
2018-06-11T04:58:50.609Z,20.05
2018-06-11T05:01:26.551Z,20.17
2018-06-11T05:04:02.193Z,20.36
2018-06-11T05:06:38.490Z,20.48
2018-06-11T05:09:14.257Z,20.51
2018-06-11T05:11:50.215Z,20.55
2018-06-11T05:14:25.801Z,20.66
2018-06-11T05:17:01.760Z,20.52
2018-06-11T05:19:37.677Z,20.51
2018-06-11T05:22:14.006Z,20.70
2018-06-11T05:24:49.977Z,20.95
2018-06-11T05:27:26.018Z,20.91
2018-06-11T05:30:01.993Z,21.11
2018-06-11T05:32:40.818Z,21.55
2018-06-11T05:35:16.324Z,21.77
2018-06-11T05:37:52.147Z,21.76
2018-06-11T05:40:28.039Z,21.83
2018-06-11T05:43:03.925Z,21.86
2018-06-11T05:45:39.783Z,21.65
2018-06-11T05:48:15.755Z,21.95
2018-06-11T05:50:51.911Z,22.05
2018-06-11T05:53:28.265Z,22.02
2018-06-11T05:56:04.237Z,22.10
2018-06-11T05:58:40.464Z,22.42
2018-06-11T06:01:16.406Z,22.53
2018-06-11T06:03:52.741Z,22.64
2018-06-11T06:06:30.478Z,22.91
2018-06-11T06:09:09.188Z,23.25
2018-06-11T06:11:46.287Z,23.36
2018-06-11T06:14:22.835Z,23.86
2018-06-11T06:16:59.008Z,24.09
2018-06-11T06:19:36.450Z,24.41
2018-06-11T06:22:14.343Z,24.10
2018-06-11T06:24:51.695Z,24.46
2018-06-11T06:27:27.880Z,24.48
2018-06-11T06:30:03.727Z,24.78
2018-06-11T06:38:52.311Z,24.76
2018-06-11T06:41:53.050Z,24.22
2018-06-11T06:45:07.929Z,24.64
2018-06-11T06:51:12.379Z,25.08
2018-06-11T06:54:05.972Z,25.54
2018-06-11T06:56:56.097Z,25.54
2018-06-11T06:59:44.167Z,25.79
2018-06-11T07:02:32.200Z,26.07
2018-06-11T07:05:22.797Z,25.97
2018-06-11T07:08:05.777Z,26.19
2018-06-11T07:10:46.029Z,26.33
2018-06-11T07:13:25.311Z,26.64
2018-06-11T07:16:11.971Z,27.40
2018-06-11T07:18:52.477Z,27.62
2018-06-11T07:21:30.337Z,28.20
2018-06-11T07:24:12.642Z,28.68
2018-06-11T07:26:54.291Z,29.55
2018-06-11T07:29:30.973Z,29.28
2018-06-11T07:32:09.261Z,29.32
2018-06-11T07:34:46.906Z,29.39
2018-06-11T07:37:25.589Z,29.49
2018-06-11T07:40:02.530Z,29.44
2018-06-11T07:42:44.156Z,29.60
2018-06-11T07:45:22.484Z,29.12
2018-06-11T07:47:59.926Z,28.60
2018-06-11T07:50:38.722Z,29.62
2018-06-11T07:53:20.770Z,28.93
2018-06-11T07:55:57.703Z,29.32
2018-06-11T07:58:35.519Z,29.82
2018-06-11T08:01:11.827Z,29.46
2018-06-11T08:03:50.735Z,30.10
2018-06-11T08:06:27.520Z,30.98
2018-06-11T08:09:05.813Z,31.29
2018-06-11T08:11:43.883Z,32.70
2018-06-11T08:14:21.315Z,32.26
2018-06-11T08:16:58.306Z,31.09
2018-06-11T08:19:35.763Z,31.72
2018-06-11T08:22:11.970Z,31.09
2018-06-11T08:24:51.343Z,31.07
2018-06-11T08:27:28.195Z,30.24
2018-06-11T08:30:06.660Z,31.09
2018-06-11T08:32:44.277Z,32.04
2018-06-11T08:35:35.281Z,31.27
2018-06-11T08:38:14.922Z,31.42
2018-06-11T08:43:58.755Z,32.33
2018-06-11T08:47:10.387Z,32.86
2018-06-11T08:49:51.040Z,32.77
2018-06-11T08:52:38.404Z,32.78
2018-06-11T08:55:14.944Z,33.09
2018-06-11T08:57:53.470Z,33.94
2018-06-11T09:00:30.620Z,33.86
2018-06-11T09:03:31.662Z,33.98
2018-06-11T09:06:09.582Z,33.05
2018-06-11T09:08:51.106Z,32.55
2018-06-11T09:11:34.220Z,32.23
2018-06-11T09:14:14.659Z,32.26
2018-06-11T09:16:54.732Z,31.20
2018-06-11T09:19:35.258Z,31.39
2018-06-11T09:22:14.505Z,30.93
2018-06-11T09:25:07.917Z,30.70
2018-06-11T09:27:56.428Z,31.62
2018-06-11T09:30:38.770Z,31.60
2018-06-11T09:33:21.307Z,32.57
2018-06-11T09:36:08.549Z,32.47
2018-06-11T09:38:55.482Z,32.72
2018-06-11T09:41:35.370Z,32.77
2018-06-11T09:44:17.832Z,32.51
2018-06-11T09:46:54.418Z,31.51
2018-06-11T09:49:35.303Z,31.16
2018-06-11T09:52:13.926Z,31.28
2018-06-11T09:54:54.293Z,31.83
2018-06-11T09:57:31.111Z,31.74
2018-06-11T10:00:08.492Z,31.89
2018-06-11T10:02:45.666Z,31.35
2018-06-11T10:05:22.405Z,31.09
2018-06-11T10:07:59.552Z,30.94
2018-06-11T10:10:37.062Z,30.96
2018-06-11T10:13:16.310Z,31.08
2018-06-11T10:15:54.155Z,30.87
2018-06-11T10:18:31.741Z,30.80
2018-06-11T10:21:08.961Z,31.64
2018-06-11T10:23:45.892Z,31.95
2018-06-11T10:26:22.665Z,31.36
2018-06-11T10:28:58.805Z,31.57
2018-06-11T10:31:35.463Z,32.53
2018-06-11T10:34:13.717Z,33.00
2018-06-11T10:36:50.773Z,33.73
2018-06-11T10:39:26.817Z,34.63
2018-06-11T10:42:02.921Z,34.59
2018-06-11T10:44:41.943Z,34.63
2018-06-11T10:47:20.018Z,35.17
2018-06-11T10:49:56.889Z,34.92
2018-06-11T10:52:34.253Z,35.67
2018-06-11T10:55:11.851Z,35.49
2018-06-11T10:57:49.052Z,37.32
2018-06-11T11:00:26.074Z,36.80
2018-06-11T11:03:03.206Z,38.09
2018-06-11T11:05:39.853Z,39.25
2018-06-11T11:08:18.795Z,39.14
2018-06-11T11:11:02.647Z,38.36
2018-06-11T11:13:42.868Z,38.74
2018-06-11T11:16:20.571Z,39.67
2018-06-11T11:19:09.193Z,40.01
2018-06-11T11:21:49.848Z,39.56
2018-06-11T11:24:35.243Z,35.78
2018-06-11T11:27:16.043Z,36.02
2018-06-11T11:30:06.427Z,36.53
2018-06-11T11:33:00.557Z,38.72
2018-06-11T11:41:59.043Z,39.44
2018-06-11T12:07:25.213Z,42.32
2018-06-11T12:51:22.363Z,42.00
2018-06-11T12:54:44.261Z,44.08
2018-06-11T12:57:27.527Z,44.89
2018-06-11T13:03:14.601Z,40.40
2018-06-11T13:06:12.928Z,37.46
2018-06-11T13:09:20.571Z,34.88
2018-06-11T13:15:01.091Z,31.44
2018-06-11T13:24:07.500Z,30.09
2018-06-11T13:39:24.599Z,27.94
2018-06-11T13:42:09.637Z,27.81
2018-06-11T13:44:55.900Z,27.50
2018-06-11T13:47:43.030Z,27.66
2018-06-11T13:50:49.476Z,27.38
2018-06-11T13:56:54.057Z,26.90
2018-06-11T13:59:47.795Z,26.58
2018-06-11T14:02:32.604Z,26.52
2018-06-11T14:05:16.617Z,26.53
2018-06-11T14:10:58.426Z,26.14
2018-06-11T14:19:33.734Z,25.02
2018-06-11T14:22:16.927Z,24.78
2018-06-11T14:24:54.590Z,23.94
2018-06-11T14:30:18.217Z,23.54
2018-06-11T14:32:55.678Z,23.44
2018-06-11T14:35:34.352Z,23.46
2018-06-11T14:38:13.463Z,23.64
2018-06-11T14:40:50.893Z,23.73
2018-06-11T14:43:33.483Z,23.85
2018-06-11T14:46:10.090Z,24.03
2018-06-11T14:48:46.027Z,24.11
2018-06-11T14:51:28.557Z,24.11
2018-06-11T14:59:31.643Z,22.64
2018-06-11T15:02:15.190Z,22.16
2018-06-11T15:05:10.187Z,22.24
2018-06-11T15:07:48.766Z,22.11
2018-06-11T15:10:25.969Z,22.02
2018-06-11T15:13:04.093Z,22.04
2018-06-11T15:15:41.434Z,22.28
2018-06-11T15:18:20.416Z,22.32
2018-06-11T15:20:58.459Z,22.25
2018-06-11T15:23:35.388Z,22.18
2018-06-11T15:26:12.409Z,22.37
2018-06-11T15:28:49.860Z,22.62
2018-06-11T15:31:26.049Z,22.74
2018-06-11T15:34:02.723Z,22.79
2018-06-11T15:36:38.707Z,22.83
2018-06-11T15:39:15.087Z,22.80
2018-06-11T15:41:52.183Z,22.74
2018-06-11T15:44:32.517Z,22.71
2018-06-11T15:47:13.384Z,22.74
2018-06-11T15:52:51.551Z,22.73
2018-06-11T15:55:27.999Z,22.66
2018-06-11T15:58:09.384Z,22.74
2018-06-11T16:00:48.034Z,22.69
2018-06-11T16:03:28.708Z,22.63
2018-06-11T16:06:06.785Z,22.65
2018-06-11T16:08:45.251Z,22.63
2018-06-11T16:11:24.842Z,22.61
2018-06-11T16:14:01.109Z,22.57
2018-06-11T16:16:38.245Z,22.56
2018-06-11T16:19:22.170Z,22.48
2018-06-11T16:22:04.160Z,22.55
2018-06-11T16:24:41.618Z,22.28
2018-06-11T16:27:18.447Z,21.73
2018-06-11T16:29:54.410Z,21.24
2018-06-11T16:32:30.229Z,20.88
2018-06-11T16:35:05.982Z,20.63
2018-06-11T16:37:41.674Z,20.51
2018-06-11T16:40:17.274Z,20.44
2018-06-11T16:42:53.306Z,20.14
2018-06-11T16:45:29.171Z,20.08
2018-06-11T16:48:05.013Z,20.20
2018-06-11T16:50:40.701Z,20.17
2018-06-11T16:53:16.588Z,20.03
2018-06-11T16:55:52.926Z,19.73
2018-06-11T16:58:28.875Z,19.81
2018-06-11T17:01:04.309Z,19.66
2018-06-11T17:03:39.693Z,19.63
2018-06-11T17:06:15.263Z,19.61
2018-06-11T17:08:50.716Z,19.59
2018-06-11T17:11:26.391Z,19.62
2018-06-11T17:14:01.806Z,19.62
2018-06-11T17:16:37.321Z,19.53
2018-06-11T17:19:12.821Z,19.46
2018-06-11T17:21:48.291Z,19.45
2018-06-11T17:24:23.861Z,19.48
2018-06-11T17:26:59.530Z,19.41
2018-06-11T17:29:35.125Z,19.37
2018-06-11T17:32:11.428Z,19.34
2018-06-11T17:34:51.469Z,19.40
2018-06-11T17:37:28.256Z,19.41
2018-06-11T17:40:03.771Z,19.46
2018-06-11T17:42:39.178Z,19.56
2018-06-11T17:45:14.538Z,19.51
2018-06-11T17:47:50.012Z,19.52
2018-06-11T17:50:25.517Z,19.59
2018-06-11T17:53:01.123Z,19.66
2018-06-11T17:55:36.861Z,19.75
2018-06-11T17:58:12.821Z,19.71
2018-06-11T18:00:48.517Z,19.82
2018-06-11T18:03:24.872Z,20.08
2018-06-11T18:06:00.812Z,19.96
2018-06-11T18:08:36.337Z,19.69
2018-06-11T18:11:12.458Z,19.61
2018-06-11T18:13:48.661Z,19.57
2018-06-11T18:16:24.974Z,19.53
2018-06-11T18:19:00.830Z,19.46
2018-06-11T18:21:36.634Z,19.37
2018-06-11T18:24:12.647Z,19.32
2018-06-11T18:26:47.999Z,19.29
2018-06-11T18:29:24.431Z,19.25
2018-06-11T18:32:04.634Z,19.20
2018-06-11T18:34:59.180Z,19.18
2018-06-11T18:37:38.204Z,19.11
2018-06-11T18:40:16.237Z,19.06
2018-06-11T18:43:01.780Z,18.98
2018-06-11T18:45:53.918Z,18.95
2018-06-11T18:48:36.007Z,18.83
2018-06-11T18:51:18.481Z,18.67
2018-06-11T18:53:58.194Z,18.55
2018-06-11T18:56:37.229Z,18.54
2018-06-11T18:59:28.984Z,18.44
2018-06-11T19:02:39.268Z,18.41
2018-06-11T19:05:34.252Z,18.39
2018-06-11T19:08:16.036Z,18.33
2018-06-11T19:10:56.168Z,18.39
2018-06-11T19:13:35.929Z,18.45
2018-06-11T19:16:12.481Z,18.35
2018-06-11T19:19:12.401Z,18.30
2018-06-11T19:21:51.321Z,18.30
2018-06-11T19:24:27.925Z,18.27
2018-06-11T19:27:04.627Z,18.18
2018-06-11T19:29:42.281Z,18.23
2018-06-11T19:32:19.269Z,18.33
2018-06-11T19:35:01.057Z,18.32
2018-06-11T19:37:38.194Z,18.36
2018-06-11T19:40:18.200Z,18.28
2018-06-11T19:43:07.440Z,18.25
2018-06-11T19:45:50.699Z,18.35
2018-06-11T19:48:43.481Z,18.27
2018-06-11T19:51:36.198Z,18.38
2018-06-11T19:57:19.122Z,18.43
2018-06-11T20:03:07.766Z,18.45
2018-06-11T20:43:39.516Z,18.21
2018-06-11T20:46:17.410Z,18.35
2018-06-11T20:48:57.458Z,18.37
2018-06-11T20:51:35.629Z,18.33
2018-06-11T20:54:12.638Z,18.32
2018-06-11T20:56:49.563Z,18.32
2018-06-11T20:59:25.957Z,18.26
2018-06-11T21:02:02.233Z,18.25
2018-06-11T21:04:39.049Z,18.35
2018-06-11T21:07:17.164Z,18.26
2018-06-11T21:09:55.532Z,18.25
2018-06-11T21:12:31.758Z,18.22
2018-06-11T21:15:09.803Z,18.23
2018-06-11T21:17:46.801Z,18.19
2018-06-11T21:20:27.266Z,18.14
2018-06-11T21:23:03.976Z,18.07
2018-06-11T21:25:40.924Z,17.99
2018-06-11T21:28:18.681Z,18.03
2018-06-11T21:30:55.356Z,18.05
2018-06-11T21:33:33.243Z,18.06
2018-06-11T21:36:13.590Z,18.09
2018-06-11T21:38:51.978Z,18.17
2018-06-11T21:41:33.088Z,18.21
2018-06-11T21:44:11.544Z,18.18
2018-06-11T21:46:55.546Z,18.10
2018-06-11T21:49:35.176Z,18.03
2018-06-11T21:52:14.202Z,17.89
2018-06-11T21:54:51.079Z,17.83
2018-06-11T21:57:29.247Z,17.78
2018-06-11T22:00:07.885Z,17.81
2018-06-11T22:02:46.362Z,17.76
2018-06-11T22:05:23.113Z,17.73
2018-06-11T22:07:58.889Z,17.68
2018-06-11T22:10:35.158Z,17.73
2018-06-11T22:13:14.111Z,17.66
2018-06-11T22:15:50.855Z,17.65
2018-06-11T22:18:27.753Z,17.65
2018-06-11T22:21:04.414Z,17.63
2018-06-11T22:23:43.650Z,17.56
2018-06-11T22:26:22.250Z,17.53
2018-06-11T22:28:59.876Z,17.61
2018-06-11T22:31:37.066Z,17.62
2018-06-11T22:34:13.950Z,17.59
2018-06-11T22:36:50.786Z,17.57
2018-06-11T22:39:28.899Z,17.50
2018-06-11T22:42:06.370Z,17.54
2018-06-11T22:44:43.603Z,17.59
2018-06-11T22:47:24.843Z,17.54
2018-06-11T22:50:03.417Z,17.62
2018-06-11T22:52:40.865Z,17.68
2018-06-11T22:55:19.786Z,17.71
2018-06-11T22:57:58.242Z,17.64
2018-06-11T23:00:36.248Z,17.67
2018-06-11T23:03:13.876Z,17.63
2018-06-11T23:05:50.295Z,17.63
2018-06-11T23:08:27.549Z,17.65
2018-06-11T23:11:04.184Z,17.58
2018-06-11T23:13:40.044Z,17.55
2018-06-11T23:16:15.970Z,17.53
2018-06-11T23:18:51.620Z,17.61
2018-06-11T23:21:27.762Z,17.59
2018-06-11T23:24:04.088Z,17.56
2018-06-11T23:26:40.469Z,17.54
2018-06-11T23:29:19.167Z,17.54
2018-06-11T23:32:01.935Z,17.57
2018-06-11T23:34:40.758Z,17.58
2018-06-11T23:37:17.528Z,17.55
2018-06-11T23:39:55.237Z,17.49
2018-06-11T23:42:33.625Z,17.57
2018-06-11T23:45:10.822Z,17.61
2018-06-11T23:47:47.132Z,17.62
2018-06-11T23:50:28.058Z,17.70
2018-06-11T23:53:05.607Z,17.68
2018-06-11T23:55:42.150Z,17.66
2018-06-11T23:58:19.195Z,17.78
